createdAt,value
2023-04-18T00:01:50.459Z,5.80
2023-04-18T00:04:18.522Z,5.93
2023-04-18T00:06:47.321Z,5.38
2023-04-18T00:09:14.539Z,6.13
2023-04-18T00:11:41.399Z,4.70
2023-04-18T00:14:08.700Z,5.75
2023-04-18T00:16:36.394Z,6.13
2023-04-18T00:19:04.909Z,5.97
2023-04-18T00:21:32.230Z,5.85
2023-04-18T00:23:59.117Z,6.40
2023-04-18T00:26:27.356Z,6.60
2023-04-18T00:28:54.153Z,6.28
2023-04-18T00:31:20.981Z,6.18
2023-04-18T00:33:48.172Z,6.43
2023-04-18T00:36:15.157Z,6.63
2023-04-18T00:38:41.958Z,6.40
2023-04-18T00:41:08.741Z,5.95
2023-04-18T00:43:35.534Z,5.90
2023-04-18T00:46:02.353Z,6.35
2023-04-18T00:48:30.900Z,7.30
2023-04-18T00:50:58.077Z,6.15
2023-04-18T00:53:25.148Z,7.05
2023-04-18T00:55:51.901Z,8.27
2023-04-18T00:58:18.633Z,9.30
2023-04-18T01:00:45.923Z,8.40
2023-04-18T01:03:14.776Z,9.38
2023-04-18T01:05:41.793Z,9.13
2023-04-18T01:08:08.675Z,8.57
2023-04-18T01:10:36.381Z,8.38
2023-04-18T01:13:17.022Z,7.70
2023-04-18T01:15:45.635Z,7.22
2023-04-18T01:18:13.459Z,7.20
2023-04-18T01:20:43.962Z,8.43
2023-04-18T01:23:10.883Z,8.13
2023-04-18T01:25:38.029Z,10.05
2023-04-18T01:28:06.298Z,10.25
2023-04-18T01:30:33.996Z,9.80
2023-04-18T01:33:02.284Z,9.85
2023-04-18T01:35:29.731Z,9.40
2023-04-18T01:37:57.479Z,11.75
2023-04-18T01:40:24.891Z,12.27
2023-04-18T01:42:51.799Z,12.50
2023-04-18T01:45:20.160Z,13.68
2023-04-18T01:47:47.398Z,14.10
2023-04-18T01:50:14.446Z,14.13
2023-04-18T01:52:41.471Z,14.85
2023-04-18T01:55:08.702Z,13.50
2023-04-18T01:57:38.221Z,14.23
2023-04-18T02:00:06.533Z,14.13
2023-04-18T02:02:33.476Z,14.13
2023-04-18T02:05:00.439Z,15.20
2023-04-18T02:07:27.353Z,13.32
2023-04-18T02:09:54.074Z,12.85
2023-04-18T02:12:21.129Z,13.75
2023-04-18T02:14:52.649Z,13.63
2023-04-18T02:17:23.746Z,13.52
2023-04-18T02:22:19.361Z,13.80
2023-04-18T02:24:46.236Z,14.95
2023-04-18T02:27:13.117Z,14.45
2023-04-18T02:29:40.003Z,14.38
2023-04-18T02:32:07.356Z,15.30
2023-04-18T02:34:34.251Z,13.77
2023-04-18T02:37:01.031Z,13.25
2023-04-18T02:39:27.884Z,13.40
2023-04-18T02:41:54.664Z,12.50
2023-04-18T02:44:21.397Z,14.15
2023-04-18T02:46:48.191Z,13.82
2023-04-18T02:49:15.257Z,13.85
2023-04-18T02:51:41.991Z,13.60
2023-04-18T02:54:08.813Z,13.63
2023-04-18T02:56:40.023Z,13.93
2023-04-18T03:01:34.225Z,12.77
2023-04-18T03:04:01.012Z,12.63
2023-04-18T03:06:27.862Z,13.48
2023-04-18T03:08:55.869Z,14.55
2023-04-18T03:11:22.823Z,14.35
2023-04-18T03:13:49.614Z,14.43
2023-04-18T03:16:16.912Z,13.40
2023-04-18T03:18:43.831Z,13.52
2023-04-18T03:21:11.542Z,13.60
2023-04-18T03:23:38.507Z,12.85
2023-04-18T03:26:09.229Z,13.13
2023-04-18T03:28:36.193Z,13.50
2023-04-18T03:31:03.073Z,13.68
2023-04-18T03:33:29.820Z,12.35
2023-04-18T03:35:56.554Z,13.00
2023-04-18T03:38:23.411Z,12.90
2023-04-18T03:40:50.323Z,14.00
2023-04-18T03:43:19.269Z,12.30
2023-04-18T03:45:47.586Z,11.98
2023-04-18T03:48:14.744Z,10.77
2023-04-18T03:50:41.775Z,11.70
2023-04-18T03:53:08.625Z,13.25
2023-04-18T03:55:35.660Z,12.48
2023-04-18T03:58:02.373Z,12.57
2023-04-18T04:00:29.535Z,11.65
2023-04-18T04:02:56.582Z,11.80
2023-04-18T04:05:23.563Z,10.48
2023-04-18T04:07:50.353Z,10.13
2023-04-18T04:10:17.166Z,10.30
2023-04-18T04:12:43.971Z,10.95
2023-04-18T04:15:11.469Z,10.20
2023-04-18T04:17:38.325Z,11.75
2023-04-18T04:20:05.653Z,11.23
2023-04-18T04:22:32.923Z,9.45
2023-04-18T04:25:00.934Z,10.55
2023-04-18T04:27:28.222Z,11.07
2023-04-18T04:29:56.602Z,10.70
2023-04-18T04:32:25.274Z,11.27
2023-04-18T04:34:52.322Z,11.50
2023-04-18T04:37:19.280Z,11.68
2023-04-18T04:39:46.310Z,10.43
2023-04-18T04:42:13.473Z,12.38
2023-04-18T04:44:41.835Z,11.52
2023-04-18T04:47:08.709Z,12.18
2023-04-18T04:49:35.654Z,13.32
2023-04-18T04:52:03.172Z,14.18
2023-04-18T04:54:30.361Z,15.38
2023-04-18T04:56:57.124Z,14.50
2023-04-18T04:59:24.170Z,15.70
2023-04-18T05:01:51.212Z,16.08
2023-04-18T05:04:18.629Z,17.15
2023-04-18T05:06:46.303Z,18.75
2023-04-18T05:09:13.716Z,17.75
2023-04-18T05:11:40.659Z,15.70
2023-04-18T05:14:07.774Z,15.80
2023-04-18T05:16:34.684Z,15.18
2023-04-18T05:19:01.641Z,15.95
2023-04-18T05:21:29.053Z,15.23
2023-04-18T05:23:58.537Z,14.48
2023-04-18T05:26:25.340Z,16.98
2023-04-18T05:28:52.227Z,17.15
2023-04-18T05:31:19.052Z,20.17
2023-04-18T05:33:45.971Z,20.40
2023-04-18T05:36:12.828Z,18.25
2023-04-18T05:38:39.602Z,17.95
2023-04-18T05:41:06.395Z,16.63
2023-04-18T05:43:33.172Z,16.17
2023-04-18T05:45:59.992Z,17.60
2023-04-18T05:48:27.233Z,16.75
2023-04-18T05:50:54.005Z,16.60
2023-04-18T05:53:21.067Z,17.70
2023-04-18T05:55:48.949Z,17.63
2023-04-18T05:58:16.236Z,15.10
2023-04-18T06:00:43.564Z,14.65
2023-04-18T06:03:11.332Z,13.43
2023-04-18T06:05:38.673Z,13.57
2023-04-18T06:08:06.114Z,13.00
2023-04-18T06:10:32.956Z,11.98
2023-04-18T06:12:59.707Z,12.40
2023-04-18T06:15:26.643Z,12.52
2023-04-18T06:17:53.493Z,13.70
2023-04-18T06:20:20.443Z,13.70
2023-04-18T06:22:47.169Z,14.95
2023-04-18T06:25:13.957Z,14.07
2023-04-18T06:27:40.892Z,14.95
2023-04-18T06:30:08.473Z,14.30
2023-04-18T06:32:35.589Z,14.15
2023-04-18T06:35:02.550Z,12.25
2023-04-18T06:37:29.605Z,14.02
2023-04-18T06:39:56.316Z,14.00
2023-04-18T06:42:23.262Z,13.90
2023-04-18T06:44:50.324Z,13.60
2023-04-18T06:47:17.440Z,13.48
2023-04-18T06:49:44.212Z,14.40
2023-04-18T06:52:11.128Z,15.43
2023-04-18T06:54:37.927Z,13.30
2023-04-18T06:57:04.844Z,12.38
2023-04-18T06:59:31.562Z,13.55
2023-04-18T07:01:58.318Z,13.35
2023-04-18T07:04:25.343Z,14.68
2023-04-18T07:06:52.415Z,15.15
2023-04-18T07:09:19.431Z,12.57
2023-04-18T07:11:46.281Z,14.88
2023-04-18T07:14:13.244Z,15.48
2023-04-18T07:16:40.312Z,15.25
2023-04-18T07:19:07.189Z,15.40
2023-04-18T07:21:34.011Z,15.32
2023-04-18T07:24:00.757Z,14.88
2023-04-18T07:26:27.893Z,13.52
2023-04-18T07:28:54.762Z,15.35
2023-04-18T07:31:21.565Z,15.65
2023-04-18T07:33:48.435Z,14.77
2023-04-18T07:36:15.185Z,13.27
2023-04-18T07:38:42.004Z,15.02
2023-04-18T07:41:08.795Z,14.70
2023-04-18T07:43:35.555Z,15.77
2023-04-18T07:46:02.345Z,14.25
2023-04-18T07:48:29.109Z,14.43
2023-04-18T07:50:55.907Z,16.58
2023-04-18T07:53:22.779Z,15.75
2023-04-18T07:55:50.118Z,14.38
2023-04-18T07:58:17.285Z,13.85
2023-04-18T08:00:45.002Z,14.82
2023-04-18T08:03:13.043Z,13.77
2023-04-18T08:05:41.413Z,14.77
2023-04-18T08:08:10.163Z,15.07
2023-04-18T08:10:37.602Z,14.80
2023-04-18T08:13:04.613Z,13.95
2023-04-18T08:15:32.895Z,14.00
2023-04-18T08:18:00.963Z,14.68
2023-04-18T08:20:28.041Z,14.57
2023-04-18T08:23:05.160Z,14.25
2023-04-18T08:25:33.871Z,14.05
2023-04-18T08:28:00.826Z,14.32
2023-04-18T08:30:27.909Z,13.52
2023-04-18T08:32:54.727Z,14.68
2023-04-18T08:35:21.566Z,14.48
2023-04-18T08:37:48.312Z,14.65
2023-04-18T08:40:15.163Z,14.68
2023-04-18T08:42:46.533Z,13.88
2023-04-18T08:45:14.391Z,15.05
2023-04-18T08:47:42.072Z,14.95
2023-04-18T08:50:10.481Z,15.25
2023-04-18T08:52:39.952Z,14.13
2023-04-18T08:55:07.471Z,13.57
2023-04-18T08:57:35.865Z,14.40
2023-04-18T09:00:08.444Z,16.30
2023-04-18T09:02:39.097Z,14.82
2023-04-18T09:05:14.571Z,15.75
2023-04-18T09:07:42.254Z,13.27
2023-04-18T09:10:10.202Z,15.30
2023-04-18T09:12:52.431Z,14.73
2023-04-18T09:15:24.282Z,13.57
2023-04-18T09:17:56.483Z,14.52
2023-04-18T09:20:34.729Z,15.63
2023-04-18T09:23:12.450Z,14.35
2023-04-18T09:25:44.434Z,14.52
2023-04-18T09:28:41.519Z,14.23
2023-04-18T09:31:13.456Z,14.27
2023-04-18T09:33:44.971Z,14.65
2023-04-18T09:36:29.418Z,14.20
2023-04-18T09:38:57.196Z,14.45
2023-04-18T09:41:24.567Z,14.80
2023-04-18T09:44:11.448Z,14.88
2023-04-18T09:46:40.407Z,14.20
2023-04-18T09:49:09.629Z,15.88
2023-04-18T09:51:40.422Z,15.07
2023-04-18T09:54:10.887Z,15.07
2023-04-18T09:56:40.184Z,14.85
2023-04-18T09:59:09.344Z,14.68
2023-04-18T10:01:36.701Z,14.65
2023-04-18T10:04:06.866Z,14.77
2023-04-18T10:06:35.104Z,14.70
2023-04-18T10:09:04.445Z,15.52
2023-04-18T10:11:32.402Z,16.40
2023-04-18T10:14:07.078Z,15.63
2023-04-18T10:16:36.037Z,15.00
2023-04-18T10:19:26.139Z,15.32
2023-04-18T10:22:00.480Z,15.63
2023-04-18T10:24:50.050Z,15.77
2023-04-18T10:27:17.774Z,15.48
2023-04-18T10:29:49.527Z,15.40
2023-04-18T10:32:18.321Z,17.13
2023-04-18T10:34:47.121Z,15.32
2023-04-18T10:37:15.978Z,15.15
2023-04-18T10:40:00.318Z,15.05
2023-04-18T10:42:45.549Z,16.10
2023-04-18T10:45:23.617Z,15.98
2023-04-18T10:47:50.978Z,15.43
2023-04-18T10:50:18.197Z,16.58
2023-04-18T10:52:45.029Z,15.27
2023-04-18T10:55:26.274Z,15.10
2023-04-18T11:00:23.355Z,15.07
2023-04-18T11:02:53.805Z,14.48
2023-04-18T11:05:23.510Z,14.02
2023-04-18T11:07:50.816Z,13.70
2023-04-18T11:10:26.657Z,14.68
2023-04-18T11:12:54.865Z,14.05
2023-04-18T11:15:23.850Z,13.82
2023-04-18T11:17:58.368Z,13.80
2023-04-18T11:20:25.756Z,13.95
2023-04-18T11:22:57.699Z,14.23
2023-04-18T11:25:37.079Z,12.60
2023-04-18T11:28:04.793Z,12.88
2023-04-18T11:30:41.677Z,13.85
2023-04-18T11:33:10.019Z,12.95
2023-04-18T11:35:45.754Z,12.65
2023-04-18T11:38:14.151Z,12.68
2023-04-18T11:40:48.536Z,12.18
2023-04-18T11:43:21.856Z,11.75
2023-04-18T11:45:58.349Z,13.13
2023-04-18T11:48:34.793Z,12.57
2023-04-18T11:51:01.621Z,12.88
2023-04-18T11:53:36.118Z,11.63
2023-04-18T11:56:04.124Z,12.23
2023-04-18T11:58:35.078Z,13.35
2023-04-18T12:01:22.164Z,14.15
2023-04-18T12:04:05.664Z,12.20
2023-04-18T12:06:52.723Z,12.52
2023-04-18T12:09:22.195Z,11.68
2023-04-18T12:12:03.074Z,9.65
2023-04-18T12:14:30.429Z,11.15
2023-04-18T12:16:57.194Z,10.18
2023-04-18T12:19:28.482Z,10.05
2023-04-18T12:22:05.458Z,10.13
2023-04-18T12:24:32.646Z,8.60
2023-04-18T12:26:59.749Z,9.30
2023-04-18T12:29:28.712Z,9.27
2023-04-18T12:31:55.925Z,10.55
2023-04-18T12:34:22.747Z,10.52
2023-04-18T12:36:49.653Z,8.32
2023-04-18T12:39:16.598Z,8.32
2023-04-18T12:41:43.981Z,8.27
2023-04-18T12:44:10.707Z,7.50
2023-04-18T12:46:37.573Z,6.60
2023-04-18T12:49:04.452Z,7.35
2023-04-18T12:51:31.539Z,7.60
2023-04-18T12:53:58.307Z,6.82
2023-04-18T12:56:25.097Z,6.88
2023-04-18T12:58:51.871Z,6.57
2023-04-18T13:01:18.988Z,6.38
2023-04-18T13:03:53.467Z,6.38
2023-04-18T13:08:53.547Z,7.22
2023-04-18T13:11:21.771Z,8.13
2023-04-18T13:13:48.521Z,8.20
2023-04-18T13:16:15.302Z,7.40
2023-04-18T13:18:42.094Z,7.15
2023-04-18T13:21:08.889Z,6.97
2023-04-18T13:23:35.819Z,7.93
2023-04-18T13:26:02.621Z,6.90
2023-04-18T13:28:29.396Z,7.75
2023-04-18T13:30:56.130Z,8.32
2023-04-18T13:33:22.902Z,6.80
2023-04-18T13:35:49.716Z,5.10
2023-04-18T13:38:16.442Z,4.57
2023-04-18T13:40:43.161Z,4.00
2023-04-18T13:43:13.025Z,4.80
2023-04-18T13:45:39.886Z,5.50
2023-04-18T13:48:07.060Z,6.22
2023-04-18T13:50:33.834Z,5.78
2023-04-18T13:53:00.681Z,3.90
2023-04-18T13:55:27.434Z,3.83
2023-04-18T13:57:54.204Z,3.75
2023-04-18T14:00:21.096Z,3.72
2023-04-18T14:02:47.993Z,3.63
2023-04-18T14:05:15.022Z,3.30
2023-04-18T14:07:42.055Z,2.78
2023-04-18T14:10:09.164Z,2.72
2023-04-18T14:12:35.998Z,2.95
2023-04-18T14:15:02.746Z,2.50
2023-04-18T14:17:29.587Z,2.35
2023-04-18T14:19:56.363Z,2.22
2023-04-18T14:22:23.150Z,2.47
2023-04-18T14:24:52.401Z,3.10
2023-04-18T14:27:19.181Z,2.58
2023-04-18T14:29:46.483Z,2.72
2023-04-18T14:32:13.224Z,2.30
2023-04-18T14:34:40.082Z,1.90
2023-04-18T14:37:06.900Z,2.70
2023-04-18T14:39:33.760Z,2.53
2023-04-18T14:42:01.582Z,2.13
2023-04-18T14:44:29.642Z,2.60
2023-04-18T14:46:56.549Z,2.60
2023-04-18T14:49:23.376Z,1.98
2023-04-18T14:51:50.090Z,2.28
2023-04-18T14:54:16.936Z,2.33
2023-04-18T14:56:43.756Z,2.28
2023-04-18T14:59:15.568Z,2.28
2023-04-18T15:01:43.360Z,2.13
2023-04-18T15:04:10.334Z,1.95
2023-04-18T15:06:37.468Z,2.03
2023-04-18T15:09:04.534Z,1.92
2023-04-18T15:11:31.275Z,2.10
2023-04-18T15:13:58.070Z,1.65
2023-04-18T15:16:24.959Z,1.67
2023-04-18T15:18:51.865Z,1.60
2023-04-18T15:21:18.625Z,1.33
2023-04-18T15:23:45.456Z,1.38
2023-04-18T15:26:12.185Z,1.15
2023-04-18T15:28:38.986Z,1.70
2023-04-18T15:31:07.304Z,1.70
2023-04-18T15:33:34.062Z,1.00
2023-04-18T15:36:00.814Z,0.85
2023-04-18T15:38:27.681Z,0.80
2023-04-18T15:40:54.410Z,0.70
2023-04-18T15:43:21.243Z,1.00
2023-04-18T15:45:48.049Z,0.82
2023-04-18T15:48:14.855Z,0.70
2023-04-18T15:50:42.493Z,0.70
2023-04-18T15:53:09.371Z,0.70
2023-04-18T15:55:36.242Z,1.02
2023-04-18T15:58:02.964Z,1.23
2023-04-18T16:00:29.736Z,1.67
2023-04-18T16:02:56.628Z,1.10
2023-04-18T16:05:23.502Z,1.42
2023-04-18T16:07:52.315Z,0.95
2023-04-18T16:10:19.153Z,1.10
2023-04-18T16:12:46.037Z,1.40
2023-04-18T16:15:13.311Z,1.10
2023-04-18T16:17:40.164Z,1.27
2023-04-18T16:20:08.641Z,1.40
2023-04-18T16:22:35.892Z,1.20
2023-04-18T16:25:03.587Z,1.30
2023-04-18T16:27:30.563Z,1.50
2023-04-18T16:29:57.357Z,1.80
2023-04-18T16:32:24.148Z,1.90
2023-04-18T16:34:51.026Z,1.95
2023-04-18T16:37:17.810Z,1.60
2023-04-18T16:39:44.742Z,1.42
2023-04-18T16:42:13.302Z,1.98
2023-04-18T16:44:41.743Z,1.70
2023-04-18T16:47:08.589Z,1.50
2023-04-18T16:49:35.802Z,1.58
2023-04-18T16:52:02.569Z,1.60
2023-04-18T16:54:29.585Z,1.83
2023-04-18T16:56:57.093Z,1.70
2023-04-18T16:59:24.022Z,2.17
2023-04-18T17:01:50.926Z,2.10
2023-04-18T17:04:17.996Z,1.75
2023-04-18T17:06:45.041Z,2.25
2023-04-18T17:09:13.975Z,1.77
2023-04-18T17:11:41.837Z,2.00
2023-04-18T17:14:09.257Z,2.55
2023-04-18T17:16:38.676Z,2.65
2023-04-18T17:19:05.880Z,2.05
2023-04-18T17:21:34.803Z,3.03
2023-04-18T17:24:03.895Z,2.78
2023-04-18T17:26:31.114Z,3.03
2023-04-18T17:28:58.012Z,3.25
2023-04-18T17:31:24.813Z,2.72
2023-04-18T17:33:51.711Z,3.33
2023-04-18T17:36:18.477Z,3.38
2023-04-18T17:38:48.973Z,3.17
2023-04-18T17:41:17.336Z,3.67
2023-04-18T17:43:44.991Z,3.55
2023-04-18T17:46:12.111Z,3.75
2023-04-18T17:48:38.840Z,3.85
2023-04-18T17:51:06.030Z,3.78
2023-04-18T17:53:33.124Z,3.10
2023-04-18T17:55:59.979Z,3.33
2023-04-18T17:58:26.867Z,4.25
2023-04-18T18:00:53.837Z,3.55
2023-04-18T18:03:20.896Z,3.70
2023-04-18T18:05:49.430Z,4.28
2023-04-18T18:08:16.218Z,2.97
2023-04-18T18:10:43.033Z,3.42
2023-04-18T18:13:09.808Z,3.65
2023-04-18T18:15:36.556Z,3.40
2023-04-18T18:18:03.384Z,3.40
2023-04-18T18:20:30.942Z,4.10
2023-04-18T18:22:59.900Z,3.58
2023-04-18T18:25:27.607Z,3.67
2023-04-18T18:27:54.716Z,3.95
2023-04-18T18:30:21.708Z,3.42
2023-04-18T18:32:48.534Z,3.35
2023-04-18T18:35:15.319Z,3.33
2023-04-18T18:37:42.134Z,3.85
2023-04-18T18:40:09.504Z,3.90
2023-04-18T18:42:36.835Z,3.72
2023-04-18T18:45:04.131Z,3.60
2023-04-18T18:47:31.017Z,3.55
2023-04-18T18:49:57.896Z,3.38
2023-04-18T18:52:24.935Z,3.00
2023-04-18T18:54:51.748Z,3.50
2023-04-18T18:57:18.503Z,3.55
2023-04-18T18:59:45.318Z,3.40
2023-04-18T19:02:12.160Z,3.90
2023-04-18T19:04:39.297Z,3.53
2023-04-18T19:07:06.302Z,3.72
2023-04-18T19:09:33.442Z,3.90
2023-04-18T19:12:01.126Z,3.97
2023-04-18T19:14:27.875Z,3.90
2023-04-18T19:16:56.008Z,4.10
2023-04-18T19:19:23.002Z,3.78
2023-04-18T19:21:50.208Z,3.97
2023-04-18T19:24:17.692Z,4.13
2023-04-18T19:26:44.489Z,4.30
2023-04-18T19:29:14.464Z,4.10
2023-04-18T19:31:43.678Z,4.47
2023-04-18T19:34:11.161Z,4.63
2023-04-18T19:36:37.990Z,4.82
2023-04-18T19:39:04.717Z,4.63
2023-04-18T19:41:31.667Z,4.55
2023-04-18T19:43:58.412Z,4.80
2023-04-18T19:46:25.150Z,4.88
2023-04-18T19:48:51.952Z,5.00
2023-04-18T19:51:18.673Z,5.13
2023-04-18T19:53:45.864Z,5.40
2023-04-18T19:56:14.359Z,5.68
2023-04-18T19:58:46.918Z,5.78
2023-04-18T20:01:16.223Z,6.82
2023-04-18T20:03:43.114Z,6.20
2023-04-18T20:06:10.572Z,6.95
2023-04-18T20:08:41.556Z,6.85
2023-04-18T20:11:10.055Z,6.22
2023-04-18T20:13:37.620Z,6.65
2023-04-18T20:16:05.760Z,7.13
2023-04-18T20:18:34.055Z,6.95
2023-04-18T20:21:00.831Z,6.10
2023-04-18T20:23:27.598Z,6.78
2023-04-18T20:25:54.333Z,6.88
2023-04-18T20:28:21.216Z,7.13
2023-04-18T20:30:48.209Z,6.85
2023-04-18T20:33:15.148Z,6.22
2023-04-18T20:35:41.984Z,7.25
2023-04-18T20:38:10.005Z,6.72
2023-04-18T20:40:38.906Z,6.72
2023-04-18T20:43:08.142Z,6.93
2023-04-18T20:45:37.723Z,7.40
2023-04-18T20:48:04.847Z,7.32
2023-04-18T20:50:31.621Z,6.97
2023-04-18T20:53:00.510Z,6.65
2023-04-18T20:55:27.404Z,6.90
2023-04-18T20:57:54.249Z,7.00
2023-04-18T21:00:21.149Z,7.95
2023-04-18T21:02:48.113Z,6.88
2023-04-18T21:05:15.086Z,6.95
2023-04-18T21:07:42.957Z,7.25
2023-04-18T21:10:11.122Z,7.70
2023-04-18T21:12:37.879Z,7.85
2023-04-18T21:15:05.624Z,7.95
2023-04-18T21:17:32.401Z,8.90
2023-04-18T21:19:59.162Z,8.15
2023-04-18T21:22:25.977Z,7.95
2023-04-18T21:24:52.715Z,8.50
2023-04-18T21:27:19.534Z,7.10
2023-04-18T21:29:46.361Z,7.75
2023-04-18T21:32:13.253Z,8.15
2023-04-18T21:34:40.069Z,7.72
2023-04-18T21:37:06.852Z,8.80
2023-04-18T21:39:33.574Z,8.38
2023-04-18T21:42:01.884Z,9.10
2023-04-18T21:44:28.713Z,8.40
2023-04-18T21:46:56.592Z,8.70
2023-04-18T21:49:23.353Z,9.05
2023-04-18T21:51:50.335Z,9.07
2023-04-18T21:54:17.211Z,8.40
2023-04-18T21:56:44.051Z,7.88
2023-04-18T21:59:10.917Z,8.73
2023-04-18T22:01:38.483Z,8.57
2023-04-18T22:04:06.223Z,8.55
2023-04-18T22:06:33.503Z,9.68
2023-04-18T22:09:01.112Z,10.65
2023-04-18T22:11:28.647Z,10.35
2023-04-18T22:13:58.195Z,10.02
2023-04-18T22:16:25.082Z,9.98
2023-04-18T22:18:52.077Z,10.40
2023-04-18T22:21:18.877Z,10.45
2023-04-18T22:23:45.796Z,11.02
2023-04-18T22:26:12.579Z,9.75
2023-04-18T22:28:39.375Z,10.02
2023-04-18T22:31:06.291Z,10.65
2023-04-18T22:33:33.091Z,8.88
2023-04-18T22:35:59.843Z,11.48
2023-04-18T22:38:26.627Z,10.20
2023-04-18T22:40:53.447Z,10.40
2023-04-18T22:43:23.002Z,10.15
2023-04-18T22:45:50.120Z,10.25
2023-04-18T22:48:17.217Z,11.95
2023-04-18T22:50:44.159Z,12.13
2023-04-18T22:53:11.467Z,12.13
2023-04-18T22:55:40.486Z,12.95
2023-04-18T22:58:08.459Z,13.30
2023-04-18T23:00:35.385Z,13.63
2023-04-18T23:03:02.351Z,13.70
2023-04-18T23:05:30.006Z,13.68
2023-04-18T23:07:59.602Z,13.65
2023-04-18T23:10:27.130Z,14.38
2023-04-18T23:12:53.921Z,13.32
2023-04-18T23:15:22.958Z,13.60
2023-04-18T23:17:53.085Z,14.60
2023-04-18T23:20:20.896Z,14.30
2023-04-18T23:22:50.219Z,14.75
2023-04-18T23:25:17.515Z,14.45
2023-04-18T23:27:44.323Z,15.68
2023-04-18T23:30:11.736Z,15.32
2023-04-18T23:32:38.958Z,15.88
2023-04-18T23:35:06.661Z,16.08
2023-04-18T23:37:33.438Z,16.65
2023-04-18T23:40:00.652Z,14.88
2023-04-18T23:42:27.680Z,16.25
2023-04-18T23:44:54.691Z,16.27
2023-04-18T23:47:22.010Z,14.93
2023-04-18T23:49:48.857Z,16.30
2023-04-18T23:52:15.702Z,14.82
2023-04-18T23:54:42.462Z,15.18
2023-04-18T23:57:09.565Z,16.17
2023-04-18T23:59:36.282Z,15.60
